Time;durP1;ratioP1;P1;durP2;ratioP2;P2;SDS_P1;SDS_P2;PMS_P1;PMS_P2;Temp;Humidity;BMP_temperature;BMP_pressure;BME280_temperature;BME280_humidity;BME280_pressure;Samples;Min_cycle;Max_cycle;Signal;HPM_P1;HPM_P2
2021/05/16 00:02:16;;;;;;;32.58;29.48;;;;;;;8.16;94.61;95219.75;5015578;28;20034;-61
2021/05/16 00:04:41;;;;;;;33.75;30.13;;;;;;;8.13;94.90;95226.09;5015112;28;20038;-61
2021/05/16 00:07:07;;;;;;;32.33;29.52;;;;;;;8.09;94.93;95229.16;5014817;28;20071;-61
2021/05/16 00:09:33;;;;;;;36.70;33.08;;;;;;;8.13;95.29;95227.91;5017259;28;20038;-61
2021/05/16 00:11:58;;;;;;;33.00;29.98;;;;;;;8.12;95.12;95229.69;5017046;28;20129;-61
2021/05/16 00:14:24;;;;;;;32.72;29.15;;;;;;;8.23;94.50;95231.31;5017377;28;20033;-61
2021/05/16 00:16:50;;;;;;;31.67;28.67;;;;;;;8.15;94.79;95233.81;5017099;28;20026;-61
2021/05/16 00:19:15;;;;;;;27.13;24.70;;;;;;;8.08;95.01;95223.06;5012537;28;20053;-61
2021/05/16 00:21:41;;;;;;;24.23;21.92;;;;;;;8.14;94.93;95216.44;5015721;28;20397;-61
2021/05/16 00:24:07;;;;;;;23.25;21.33;;;;;;;8.07;95.14;95218.78;5012407;28;20025;-61
2021/05/16 00:26:33;;;;;;;25.70;23.30;;;;;;;8.03;95.35;95210.34;5013584;28;20030;-61
2021/05/16 00:28:58;;;;;;;24.63;22.42;;;;;;;7.99;95.50;95203.72;5014616;28;20032;-61
2021/05/16 00:31:24;;;;;;;24.10;21.90;;;;;;;8.13;94.77;95191.19;5016798;28;20061;-61
2021/05/16 00:33:49;;;;;;;24.88;22.73;;;;;;;8.12;94.63;95190.34;5020190;28;20021;-61
2021/05/16 00:36:15;;;;;;;25.25;23.10;;;;;;;8.07;94.76;95194.34;5016031;28;20022;-61
2021/05/16 00:38:41;;;;;;;27.65;25.23;;;;;;;8.01;94.96;95182.63;5016844;28;20484;-61
2021/05/16 00:41:06;;;;;;;25.20;22.95;;;;;;;8.00;95.41;95183.59;5016281;28;20394;-61
2021/05/16 00:43:32;;;;;;;25.70;23.50;;;;;;;8.01;95.16;95174.78;5016948;28;20021;-61
2021/05/16 00:45:57;;;;;;;26.52;23.90;;;;;;;8.04;95.46;95169.25;5004518;28;20929;-61
2021/05/16 00:48:23;;;;;;;28.05;25.17;;;;;;;8.05;95.28;95181.38;5018315;28;20026;-61
2021/05/16 00:50:49;;;;;;;33.10;28.40;;;;;;;8.12;94.83;95184.28;5021517;28;20025;-61
2021/05/16 00:53:22;;;;;;;28.52;25.98;;;;;;;8.19;94.52;95182.75;5017774;28;20034;-61
2021/05/16 00:55:50;;;;;;;27.58;25.05;;;;;;;8.15;94.81;95171.72;5019360;28;20398;-61
2021/05/16 00:58:16;;;;;;;30.52;27.55;;;;;;;8.20;94.34;95184.41;5014591;28;20062;-61
2021/05/16 01:00:41;;;;;;;30.10;27.20;;;;;;;8.16;94.68;95180.41;5019040;28;20026;-61
2021/05/16 01:03:08;;;;;;;30.60;27.60;;;;;;;8.12;95.22;95186.91;4996281;28;20032;-61
2021/05/16 01:05:35;;;;;;;29.65;26.95;;;;;;;8.18;95.11;95196.84;5009764;28;20022;-61
2021/05/16 01:08:02;;;;;;;29.33;26.63;;;;;;;8.21;94.49;95193.13;5021872;28;20037;-61
2021/05/16 01:10:27;;;;;;;26.20;23.88;;;;;;;8.16;94.89;95188.28;5024041;28;20053;-61
2021/05/16 01:12:55;;;;;;;24.63;22.52;;;;;;;8.11;95.08;95183.44;5014104;28;20478;-61
2021/05/16 01:15:23;;;;;;;27.92;25.38;;;;;;;8.15;95.30;95176.13;5016222;28;20022;-61
2021/05/16 01:17:50;;;;;;;26.77;24.48;;;;;;;8.15;95.35;95176.13;5009873;28;20049;-61
2021/05/16 01:20:30;;;;;;;27.00;24.50;;;;;;;8.11;95.37;95170.34;5015843;28;20097;-61
2021/05/16 01:23:03;;;;;;;27.02;24.63;;;;;;;8.14;95.15;95179.72;5007339;28;20102;-61
2021/05/16 01:25:32;;;;;;;27.63;25.10;;;;;;;8.12;94.82;95173.81;5009910;28;20025;-61
2021/05/16 01:27:58;;;;;;;28.00;25.40;;;;;;;8.06;95.25;95176.97;5010394;28;20037;-61
2021/05/16 01:30:24;;;;;;;27.48;25.00;;;;;;;8.02;95.31;95174.63;5019064;28;20109;-61
2021/05/16 01:32:51;;;;;;;28.80;26.20;;;;;;;8.01;95.56;95169.53;5014431;28;20057;-61
2021/05/16 01:35:17;;;;;;;27.50;25.13;;;;;;;8.02;95.02;95169.38;5015590;28;20030;-61
2021/05/16 01:37:43;;;;;;;28.95;26.40;;;;;;;8.07;95.05;95160.25;5015140;28;20135;-61
2021/05/16 01:40:10;;;;;;;31.88;29.13;;;;;;;8.06;95.45;95151.59;5017270;28;20026;-61
2021/05/16 01:42:39;;;;;;;32.78;29.83;;;;;;;8.10;95.05;95145.09;5021492;28;20027;-61
2021/05/16 01:45:07;;;;;;;35.10;31.50;;;;;;;8.07;95.41;95144.53;5019574;28;20025;-61
2021/05/16 01:47:33;;;;;;;68.68;32.15;;;;;;;8.07;95.50;95141.91;5018496;28;20136;-61
2021/05/16 01:50:18;;;;;;;51.25;32.55;;;;;;;7.97;96.15;95136.69;5017472;28;20032;-61
2021/05/16 01:52:46;;;;;;;46.75;31.65;;;;;;;7.94;95.92;95143.03;5014844;28;20117;-61
2021/05/16 01:55:12;;;;;;;34.88;31.48;;;;;;;7.94;96.12;95143.03;5018656;28;20045;-61
2021/05/16 01:57:39;;;;;;;94.68;35.08;;;;;;;7.94;96.04;95131.72;5026984;28;20025;-61
2021/05/16 02:00:07;;;;;;;34.47;31.20;;;;;;;7.92;96.22;95118.75;5037421;28;20030;-61
2021/05/16 02:02:33;;;;;;;33.05;29.95;;;;;;;7.93;96.41;95123.03;5030667;28;20038;-61
2021/05/16 02:05:00;;;;;;;35.20;31.50;;;;;;;7.95;96.02;95123.72;5031755;28;20366;-61
2021/05/16 02:07:26;;;;;;;35.33;31.50;;;;;;;8.00;95.52;95132.00;5029490;28;20037;-61
2021/05/16 02:09:52;;;;;;;165.27;36.22;;;;;;;7.92;96.15;95131.03;5033664;28;20498;-61
2021/05/16 02:12:18;;;;;;;35.15;31.45;;;;;;;7.89;96.31;95142.63;5027539;28;20033;-61
2021/05/16 02:14:45;;;;;;;35.80;32.33;;;;;;;7.91;96.16;95138.06;5030084;28;20029;-61
2021/05/16 02:17:13;;;;;;;34.35;31.00;;;;;;;7.92;96.29;95142.34;5014081;28;20091;-61
2021/05/16 02:19:39;;;;;;;38.70;31.75;;;;;;;7.96;95.79;95137.66;5015076;28;20025;-61
2021/05/16 02:22:04;;;;;;;35.95;30.92;;;;;;;8.06;95.77;95140.25;5020964;28;20036;-61
2021/05/16 02:24:30;;;;;;;44.53;31.20;;;;;;;8.03;95.82;95151.88;5018815;28;20030;-61
2021/05/16 02:26:59;;;;;;;40.53;30.27;;;;;;;7.99;95.89;95159.16;5018205;28;20029;-62
2021/05/16 02:29:27;;;;;;;33.92;30.52;;;;;;;8.06;95.66;95158.59;5024468;28;20025;-61
2021/05/16 02:31:53;;;;;;;33.15;30.05;;;;;;;8.00;95.91;95147.72;5031364;28;20045;-61
2021/05/16 02:34:18;;;;;;;30.23;27.20;;;;;;;8.10;95.41;95158.19;5025224;28;20556;-61
2021/05/16 02:36:44;;;;;;;30.65;27.80;;;;;;;8.15;95.23;95168.28;5025548;28;20026;-61
2021/05/16 02:39:10;;;;;;;28.27;25.55;;;;;;;8.14;95.20;95164.00;5028175;28;20050;-61
2021/05/16 02:41:36;;;;;;;27.77;25.10;;;;;;;8.19;94.72;95163.59;5019837;28;20079;-61
2021/05/16 02:44:01;;;;;;;27.92;25.50;;;;;;;8.10;94.68;95173.13;5028209;28;20029;-61
2021/05/16 02:46:27;;;;;;;28.98;26.13;;;;;;;8.15;94.84;95174.31;5006518;28;20029;-61
2021/05/16 02:48:52;;;;;;;31.10;28.17;;;;;;;8.12;95.16;95166.75;5008827;28;20097;-61
2021/05/16 02:51:20;;;;;;;34.20;28.40;;;;;;;8.17;94.58;95158.47;5015370;28;20080;-61
2021/05/16 02:53:46;;;;;;;30.35;27.20;;;;;;;8.15;94.76;95163.84;5011830;28;20100;-61
2021/05/16 02:56:12;;;;;;;30.70;27.80;;;;;;;8.01;95.68;95167.72;5018311;28;20434;-61
2021/05/16 02:58:38;;;;;;;31.60;28.63;;;;;;;7.98;95.34;95161.94;5029830;28;20029;-61
2021/05/16 03:01:03;;;;;;;30.90;28.00;;;;;;;7.99;95.62;95164.41;5032998;28;20085;-61
2021/05/16 03:03:29;;;;;;;28.65;26.10;;;;;;;8.02;95.92;95164.13;5034081;28;20513;-61
2021/05/16 03:05:54;;;;;;;31.48;28.38;;;;;;;8.27;94.76;95155.84;5019792;28;20014;-61
2021/05/16 03:08:20;;;;;;;30.60;27.98;;;;;;;8.24;94.46;95151.69;5024669;28;20072;-61
2021/05/16 03:10:45;;;;;;;31.05;28.13;;;;;;;8.13;94.73;95162.34;5021680;28;20036;-61
2021/05/16 03:13:11;;;;;;;35.25;31.48;;;;;;;8.02;95.75;95158.88;5010915;28;20021;-62
2021/05/16 03:15:37;;;;;;;33.85;30.75;;;;;;;7.97;95.91;95158.47;5012956;28;20033;-61
2021/05/16 03:18:02;;;;;;;32.20;29.30;;;;;;;7.97;96.19;95168.97;5015175;28;20025;-61
2021/05/16 03:20:28;;;;;;;33.28;30.27;;;;;;;7.98;95.91;95175.88;5017799;28;20029;-61
2021/05/16 03:22:53;;;;;;;30.83;28.13;;;;;;;7.99;95.79;95182.75;5018252;28;20060;-61
2021/05/16 03:25:19;;;;;;;36.70;32.88;;;;;;;7.99;96.05;95172.28;5017897;28;20029;-62
2021/05/16 03:27:44;;;;;;;38.47;34.58;;;;;;;7.99;96.37;95171.47;5017228;28;20156;-61
2021/05/16 03:30:11;;;;;;;37.90;34.13;;;;;;;7.98;96.44;95182.91;5030451;28;20021;-61
2021/05/16 03:32:39;;;;;;;34.33;30.98;;;;;;;8.01;96.43;95172.16;5024844;28;20029;-62
2021/05/16 03:35:06;;;;;;;32.88;29.63;;;;;;;8.03;96.44;95173.66;5026096;28;20049;-61
2021/05/16 03:37:31;;;;;;;32.80;29.63;;;;;;;8.06;96.36;95174.34;5014118;28;20061;-61
2021/05/16 03:39:57;;;;;;;32.10;29.17;;;;;;;8.01;96.12;95170.34;4999588;28;20398;-62
2021/05/16 03:42:22;;;;;;;32.38;29.17;;;;;;;8.00;95.95;95160.81;5020198;28;20225;-62
2021/05/16 03:44:48;;;;;;;31.80;28.90;;;;;;;8.02;96.28;95160.69;5017670;28;20026;-62
2021/05/16 03:47:14;;;;;;;31.30;28.38;;;;;;;8.06;96.03;95151.59;5017638;28;20398;-62
2021/05/16 03:49:39;;;;;;;28.33;25.83;;;;;;;8.06;95.98;95138.47;5017272;28;20050;-62
2021/05/16 03:52:05;;;;;;;29.70;27.00;;;;;;;8.23;95.25;95118.56;5017779;28;20045;-62
2021/05/16 03:54:31;;;;;;;28.58;26.08;;;;;;;8.20;95.25;95108.34;5005628;28;20496;-62
2021/05/16 03:56:56;;;;;;;27.52;25.02;;;;;;;8.22;95.00;95111.66;5008203;28;20390;-62
2021/05/16 03:59:22;;;;;;;26.50;24.23;;;;;;;8.32;94.49;95104.63;5019271;28;20036;-62
2021/05/16 04:01:47;;;;;;;28.27;25.58;;;;;;;8.17;95.05;95106.03;5019802;28;20022;-62
2021/05/16 04:04:13;;;;;;;27.65;25.20;;;;;;;8.07;95.46;95113.06;5016949;28;20022;-62
2021/05/16 04:06:39;;;;;;;28.52;25.83;;;;;;;8.06;95.58;95108.78;5016475;28;20632;-62
2021/05/16 04:09:05;;;;;;;32.25;29.27;;;;;;;8.02;96.08;95109.06;5013295;28;20028;-62
2021/05/16 04:11:30;;;;;;;33.63;30.40;;;;;;;8.00;96.01;95102.34;5024114;28;20026;-62
2021/05/16 04:13:56;;;;;;;33.40;30.10;;;;;;;7.95;96.30;95097.50;5015010;28;20108;-62
2021/05/16 04:16:21;;;;;;;28.40;25.70;;;;;;;7.99;96.19;95098.88;5015580;28;20490;-62
2021/05/16 04:18:47;;;;;;;30.77;27.83;;;;;;;7.98;96.33;95107.72;5016307;28;20057;-62
2021/05/16 04:21:12;;;;;;;25.70;23.50;;;;;;;8.00;96.02;95111.00;5016977;28;20033;-62
2021/05/16 04:23:38;;;;;;;28.45;25.63;;;;;;;7.99;96.33;95114.59;5016973;28;20359;-62
2021/05/16 04:26:04;;;;;;;27.52;25.00;;;;;;;8.02;96.36;95124.81;5016629;28;20044;-62
2021/05/16 04:28:29;;;;;;;28.67;26.08;;;;;;;8.02;96.39;95134.47;5021521;28;20029;-62
2021/05/16 04:30:55;;;;;;;25.20;22.88;;;;;;;8.05;95.93;95135.97;5021813;28;20018;-62
2021/05/16 04:33:21;;;;;;;26.95;24.35;;;;;;;8.10;95.75;95125.91;5022402;28;20022;-62
2021/05/16 04:35:47;;;;;;;25.60;23.50;;;;;;;8.22;95.42;95135.28;5016740;28;20486;-62
2021/05/16 04:38:12;;;;;;;27.25;24.85;;;;;;;8.21;95.46;95136.22;5014425;28;20052;-62
2021/05/16 04:40:38;;;;;;;26.40;24.10;;;;;;;8.28;95.18;95134.69;5015220;28;20029;-62
2021/05/16 04:43:04;;;;;;;24.48;22.45;;;;;;;8.42;94.65;95125.56;5014199;28;20076;-62
2021/05/16 04:45:29;;;;;;;25.77;23.55;;;;;;;8.33;94.80;95142.16;5015151;28;20125;-62
2021/05/16 04:47:55;;;;;;;26.08;23.67;;;;;;;8.36;94.60;95125.31;5001625;28;20026;-62
2021/05/16 04:50:20;;;;;;;25.42;23.13;;;;;;;8.25;94.79;95113.19;4999485;28;20026;-62
2021/05/16 04:52:46;;;;;;;26.55;24.25;;;;;;;8.24;95.22;95101.84;5014716;28;20026;-62
2021/05/16 04:55:14;;;;;;;26.15;23.85;;;;;;;8.36;94.48;95109.56;5016588;28;20069;-62
2021/05/16 04:57:40;;;;;;;28.10;25.50;;;;;;;8.29;94.81;95102.28;5019361;28;20032;-62
2021/05/16 05:00:06;;;;;;;28.80;26.05;;;;;;;8.34;94.89;95099.22;5033825;28;20076;-62
2021/05/16 05:02:35;;;;;;;29.13;26.38;;;;;;;8.31;94.74;95102.97;5017701;28;20030;-63
2021/05/16 05:05:03;;;;;;;27.27;24.98;;;;;;;8.27;95.04;95104.19;5014873;28;20026;-63
2021/05/16 05:07:30;;;;;;;27.85;25.23;;;;;;;8.33;94.77;95100.19;5008787;28;20036;-63
2021/05/16 05:09:55;;;;;;;27.00;24.60;;;;;;;8.31;94.78;95097.72;5015282;28;20529;-63
2021/05/16 05:12:21;;;;;;;26.67;24.45;;;;;;;8.38;95.08;95084.84;5014007;28;20374;-63
2021/05/16 05:14:46;;;;;;;26.38;24.08;;;;;;;8.44;95.07;95088.69;5015937;28;20018;-63
2021/05/16 05:17:12;;;;;;;24.30;22.10;;;;;;;8.47;94.92;95088.41;5019839;28;20044;-63
2021/05/16 05:19:37;;;;;;;26.10;23.75;;;;;;;8.44;94.83;95086.91;5016354;28;20571;-63
2021/05/16 05:22:03;;;;;;;25.20;22.88;;;;;;;8.55;94.58;95087.72;5019943;28;20029;-63
2021/05/16 05:24:28;;;;;;;25.70;23.23;;;;;;;8.52;95.29;95091.47;5016506;28;20026;-62
2021/05/16 05:26:54;;;;;;;23.83;21.90;;;;;;;8.51;94.99;95107.34;5022057;28;20021;-63
2021/05/16 05:29:20;;;;;;;23.38;21.25;;;;;;;8.50;94.79;95106.50;5028119;28;20030;-62
2021/05/16 05:31:45;;;;;;;22.05;19.85;;;;;;;8.50;94.60;95101.25;5031067;28;20029;-63
2021/05/16 05:34:12;;;;;;;21.88;20.05;;;;;;;8.53;94.85;95110.66;5017399;28;20054;-63
2021/05/16 05:36:38;;;;;;;21.65;19.70;;;;;;;8.58;95.22;95117.13;5017706;28;20040;-63
2021/05/16 05:39:05;;;;;;;20.27;18.50;;;;;;;8.60;94.76;95120.44;5017398;28;20537;-63
2021/05/16 05:41:30;;;;;;;19.65;18.05;;;;;;;8.57;95.05;95133.84;5021198;28;20033;-63
2021/05/16 05:43:56;;;;;;;21.75;19.90;;;;;;;8.55;95.03;95141.03;5021661;28;20175;-63
2021/05/16 05:46:21;;;;;;;18.98;17.38;;;;;;;8.53;94.57;95137.72;5004233;28;20026;-63
2021/05/16 05:48:47;;;;;;;17.58;16.20;;;;;;;8.52;94.75;95138.69;5004023;28;20037;-63
2021/05/16 05:51:13;;;;;;;17.58;16.08;;;;;;;8.58;94.60;95137.28;5006396;28;20188;-63
2021/05/16 05:53:40;;;;;;;18.08;16.65;;;;;;;8.65;94.15;95134.91;5007514;28;20128;-63
2021/05/16 05:56:06;;;;;;;17.67;16.10;;;;;;;8.70;94.06;95133.50;5021563;28;20033;-63
2021/05/16 05:58:34;;;;;;;17.80;16.40;;;;;;;8.73;94.22;95132.38;5027009;28;20030;-62
2021/05/16 06:01:00;;;;;;;18.75;17.05;;;;;;;8.75;93.90;95135.72;5016563;28;20034;-62
2021/05/16 06:03:26;;;;;;;18.50;17.00;;;;;;;8.84;93.62;95136.63;5007735;28;20033;-62
2021/05/16 06:05:51;;;;;;;19.58;17.88;;;;;;;8.72;94.25;95139.44;5015849;28;20022;-62
2021/05/16 06:08:17;;;;;;;18.08;16.63;;;;;;;8.74;93.95;95139.31;5021259;28;20034;-62
2021/05/16 06:10:42;;;;;;;19.65;17.77;;;;;;;8.82;93.84;95141.19;5017884;28;20248;-62
2021/05/16 06:13:08;;;;;;;18.08;16.58;;;;;;;8.78;94.07;95143.31;5021807;28;20025;-62
2021/05/16 06:15:33;;;;;;;18.50;17.05;;;;;;;8.81;94.13;95150.03;5021900;28;20036;-63
2021/05/16 06:18:01;;;;;;;18.88;17.15;;;;;;;8.88;94.15;95141.44;5020363;28;20029;-62
2021/05/16 06:20:27;;;;;;;16.00;14.80;;;;;;;8.96;93.81;95145.97;5028696;28;20424;-62
2021/05/16 06:22:53;;;;;;;15.77;14.48;;;;;;;8.93;94.01;95155.94;5022095;28;20026;-63
2021/05/16 06:25:19;;;;;;;16.38;15.07;;;;;;;9.05;93.86;95160.03;5021400;28;20034;-63
2021/05/16 06:27:44;;;;;;;16.80;15.38;;;;;;;9.06;93.59;95163.47;5018277;28;20026;-62
2021/05/16 06:30:11;;;;;;;18.48;16.90;;;;;;;9.03;93.77;95161.97;5019184;28;20117;-63
2021/05/16 06:32:38;;;;;;;17.63;16.17;;;;;;;9.00;94.16;95154.41;5018039;28;20057;-62
2021/05/16 06:35:04;;;;;;;18.50;16.92;;;;;;;9.00;94.26;95157.84;5019066;28;20114;-63
2021/05/16 06:37:29;;;;;;;18.63;16.83;;;;;;;9.02;94.19;95155.06;5014344;28;20725;-63
2021/05/16 06:39:55;;;;;;;17.42;15.98;;;;;;;9.04;94.16;95150.50;5017059;28;20026;-63
2021/05/16 06:42:21;;;;;;;14.98;13.77;;;;;;;9.02;93.95;95161.13;5017695;28;20093;-63
2021/05/16 06:44:47;;;;;;;16.77;15.20;;;;;;;9.05;94.38;95154.78;5002103;28;20037;-63
2021/05/16 06:47:13;;;;;;;16.00;14.80;;;;;;;9.08;94.12;95130.84;5000811;28;20018;-63
2021/05/16 06:49:38;;;;;;;13.98;12.98;;;;;;;9.10;93.86;95128.91;5014758;28;20045;-63
2021/05/16 06:52:04;;;;;;;15.27;14.00;;;;;;;9.15;94.27;95134.53;5011961;28;20096;-63
2021/05/16 06:54:30;;;;;;;17.00;15.60;;;;;;;9.20;94.46;95136.72;5018249;28;20032;-63
2021/05/16 06:56:56;;;;;;;14.40;13.32;;;;;;;9.30;93.79;95120.91;5011613;28;20018;-63
2021/05/16 06:59:22;;;;;;;14.32;13.13;;;;;;;9.42;93.58;95127.63;5033527;28;20120;-62
2021/05/16 07:01:48;;;;;;;14.38;13.18;;;;;;;9.36;93.66;95111.63;5035392;28;20021;-64
2021/05/16 07:04:14;;;;;;;13.48;12.48;;;;;;;9.42;93.63;95114.47;5024444;28;20389;-62
2021/05/16 07:06:39;;;;;;;13.75;12.68;;;;;;;9.55;93.40;95115.91;5027680;28;20029;-63
2021/05/16 07:09:05;;;;;;;11.88;10.98;;;;;;;9.53;93.18;95118.69;5003749;28;20022;-63
2021/05/16 07:11:31;;;;;;;13.57;12.48;;;;;;;9.49;93.27;95127.03;5005908;28;20018;-63
2021/05/16 07:13:56;;;;;;;13.27;12.13;;;;;;;9.46;93.33;95118.47;5021716;28;20096;-63
2021/05/16 07:16:22;;;;;;;13.40;12.40;;;;;;;9.47;92.96;95124.53;5013044;28;20110;-64
2021/05/16 07:18:47;;;;;;;13.77;12.57;;;;;;;9.50;93.27;95131.28;5015093;28;20029;-62
2021/05/16 07:21:13;;;;;;;11.65;10.68;;;;;;;9.54;92.82;95127.38;5017524;28;20069;-64
2021/05/16 07:23:39;;;;;;;12.20;11.23;;;;;;;9.51;92.58;95127.69;5003066;28;20398;-64
2021/05/16 07:26:05;;;;;;;11.10;10.27;;;;;;;9.55;92.66;95129.88;5008791;28;20490;-62
2021/05/16 07:28:31;;;;;;;11.00;10.10;;;;;;;9.56;91.95;95122.81;5005768;28;20053;-63
2021/05/16 07:30:56;;;;;;;13.93;12.88;;;;;;;9.79;92.14;95133.72;5004234;28;20034;-62
2021/05/16 07:33:22;;;;;;;13.50;12.23;;;;;;;9.89;91.94;95134.44;5003317;28;20034;-64
2021/05/16 07:35:48;;;;;;;12.98;11.88;;;;;;;9.95;91.50;95135.66;5005287;28;20498;-63
2021/05/16 07:38:13;;;;;;;12.25;11.35;;;;;;;9.88;91.68;95132.00;5007930;28;20077;-62
2021/05/16 07:40:39;;;;;;;12.40;11.50;;;;;;;9.88;91.94;95124.09;5010315;28;20033;-64
2021/05/16 07:43:06;;;;;;;13.75;12.68;;;;;;;10.06;91.53;95117.97;5014450;28;20056;-62
2021/05/16 07:45:32;;;;;;;13.25;12.27;;;;;;;10.13;91.34;95121.66;5014618;28;20110;-68
2021/05/16 07:47:58;;;;;;;13.85;12.75;;;;;;;10.24;91.08;95126.66;5012563;28;20022;-67
2021/05/16 07:50:23;;;;;;;12.88;11.95;;;;;;;10.17;90.91;95125.63;5004327;28;20029;-66
2021/05/16 07:52:49;;;;;;;12.18;11.35;;;;;;;10.13;91.13;95119.03;5009203;28;20026;-66
2021/05/16 07:55:15;;;;;;;12.48;11.60;;;;;;;10.11;91.20;95121.78;5010834;28;20030;-67
2021/05/16 07:57:40;;;;;;;12.70;11.80;;;;;;;10.31;90.72;95109.28;5021340;28;20021;-65
2021/05/16 08:00:11;;;;;;;11.77;10.88;;;;;;;10.46;89.97;95114.00;5029168;28;20025;-65
2021/05/16 08:02:40;;;;;;;9.85;9.15;;;;;;;10.55;89.23;95102.56;4996002;28;20051;-64
2021/05/16 08:05:06;;;;;;;9.38;8.73;;;;;;;10.62;89.59;95117.72;5015650;28;20035;-65
2021/05/16 08:07:32;;;;;;;9.85;9.20;;;;;;;10.65;89.61;95128.78;4958937;28;20127;-68
2021/05/16 08:09:57;;;;;;;9.45;8.70;;;;;;;10.55;89.66;95128.03;5007836;28;20096;-67
2021/05/16 08:12:23;;;;;;;9.10;8.32;;;;;;;10.47;89.87;95120.91;5010170;28;20033;-68
2021/05/16 08:14:49;;;;;;;10.13;9.38;;;;;;;10.42;90.47;95112.66;5010379;28;20038;-66
2021/05/16 08:17:14;;;;;;;11.68;10.80;;;;;;;10.49;90.68;95113.69;5012413;28;20034;-67
2021/05/16 08:19:42;;;;;;;11.05;10.13;;;;;;;10.89;90.05;95088.53;5008024;28;20137;-64
2021/05/16 08:22:10;;;;;;;12.02;11.02;;;;;;;11.15;89.50;95089.47;5011396;28;20399;-66
2021/05/16 08:24:38;;;;;;;10.85;10.07;;;;;;;11.71;88.94;95112.63;5008378;28;20030;-65
2021/05/16 08:27:07;;;;;;;9.13;8.43;;;;;;;11.98;87.09;95121.25;5006495;28;20379;-69
2021/05/16 08:29:37;;;;;;;8.68;7.97;;;;;;;11.86;86.87;95120.75;5006988;28;20030;-68
2021/05/16 08:32:05;;;;;;;7.15;6.72;;;;;;;11.62;86.65;95103.91;5012903;28;20045;-66
2021/05/16 08:34:31;;;;;;;8.38;6.85;;;;;;;11.54;86.74;95086.25;5006633;28;20042;-67
2021/05/16 08:36:57;;;;;;;5.97;5.68;;;;;;;11.61;86.53;95081.16;5010199;28;20109;-67
2021/05/16 08:39:23;;;;;;;4.90;4.60;;;;;;;11.97;86.91;95080.81;4992297;28;20034;-68
2021/05/16 08:41:49;;;;;;;4.38;4.07;;;;;;;12.40;86.12;95082.47;4976708;28;20026;-67
2021/05/16 08:44:16;;;;;;;5.00;4.50;;;;;;;12.53;85.58;95076.66;4992936;28;20037;-64
2021/05/16 08:46:42;;;;;;;6.88;5.28;;;;;;;12.72;85.17;95075.47;4996809;28;20517;-65
2021/05/16 08:49:07;;;;;;;6.47;6.07;;;;;;;12.84;84.47;95075.91;4996598;28;20034;-64
2021/05/16 08:51:34;;;;;;;6.35;5.95;;;;;;;12.89;83.75;95071.75;4997674;28;20089;-67
2021/05/16 08:54:00;;;;;;;7.13;6.60;;;;;;;12.82;83.05;95062.88;4996835;28;20494;-66
2021/05/16 08:56:25;;;;;;;5.20;4.90;;;;;;;13.08;81.22;95072.31;4998684;28;20018;-64
2021/05/16 08:58:51;;;;;;;3.92;3.63;;;;;;;13.16;80.22;95068.81;5000650;28;20038;-68
2021/05/16 09:01:23;;;;;;;3.67;3.38;;;;;;;13.29;80.77;95062.97;4993175;28;20491;-68
2021/05/16 09:03:50;;;;;;;3.65;2.95;;;;;;;13.89;80.75;95052.66;4993667;28;20406;-65
2021/05/16 09:06:16;;;;;;;3.15;2.95;;;;;;;14.42;78.29;95057.13;4997049;28;20029;-66
2021/05/16 09:08:42;;;;;;;3.22;3.03;;;;;;;14.51;78.07;95060.53;4996724;28;20793;-69
2021/05/16 09:11:07;;;;;;;3.05;2.85;;;;;;;14.66;77.87;95057.88;4993840;28;20081;-65
2021/05/16 09:13:38;;;;;;;3.13;2.92;;;;;;;14.68;76.17;95056.69;4992739;28;20046;-67
2021/05/16 09:16:11;;;;;;;3.45;3.15;;;;;;;14.44;77.30;95049.81;4997723;28;20077;-65
2021/05/16 09:18:54;;;;;;;3.17;2.97;;;;;;;14.26;76.83;95036.94;4994013;28;20398;-67
2021/05/16 09:21:34;;;;;;;3.38;3.17;;;;;;;14.50;76.58;95038.53;4993774;28;20109;-68
2021/05/16 09:23:59;;;;;;;3.40;3.20;;;;;;;14.52;76.87;95040.97;4997576;28;20030;-66
2021/05/16 09:26:31;;;;;;;3.03;2.75;;;;;;;14.50;76.59;95032.38;4994766;28;20854;-67
2021/05/16 09:29:28;;;;;;;2.35;2.20;;;;;;;14.31;77.03;95039.88;4987420;28;20030;-65
2021/05/16 09:31:56;;;;;;;2.50;2.30;;;;;;;14.49;76.00;95047.47;5000209;28;20079;-63
2021/05/16 09:34:22;;;;;;;2.33;2.22;;;;;;;14.84;75.99;95041.66;4989146;28;20080;-68
2021/05/16 09:36:49;;;;;;;2.47;2.38;;;;;;;14.83;75.25;95040.81;4988815;28;20113;-68
2021/05/16 09:39:23;;;;;;;4.72;4.43;;;;;;;15.04;74.52;95040.06;5012594;28;20514;-67
2021/05/16 09:42:10;;;;;;;5.38;4.85;;;;;;;14.51;76.18;95052.56;5012738;28;20033;-68
2021/05/16 09:44:49;;;;;;;5.60;5.20;;;;;;;14.55;76.49;95056.50;5014572;28;20026;-67
2021/05/16 09:47:20;;;;;;;4.93;4.60;;;;;;;14.14;78.97;95060.38;5006360;28;20030;-67
2021/05/16 09:49:52;;;;;;;5.70;5.13;;;;;;;14.03;78.53;95051.84;5007071;28;20034;-65
2021/05/16 09:52:27;;;;;;;5.72;5.35;;;;;;;13.93;79.57;95046.00;5015605;28;20052;-66
2021/05/16 09:55:11;;;;;;;6.53;6.03;;;;;;;14.17;77.51;95044.97;5011732;28;20026;-65
2021/05/16 09:57:46;;;;;;;6.32;5.93;;;;;;;13.98;79.27;95043.66;4997854;28;20022;-65
2021/05/16 10:00:17;;;;;;;6.53;6.13;;;;;;;13.99;78.93;95036.53;5034250;28;20030;-66
2021/05/16 10:02:43;;;;;;;6.47;5.97;;;;;;;14.11;78.14;95032.44;5019744;28;20152;-64
2021/05/16 10:05:14;;;;;;;10.75;5.60;;;;;;;14.30;77.78;95032.94;5016983;28;20034;-63
2021/05/16 10:07:41;;;;;;;7.20;6.68;;;;;;;14.25;77.82;95030.81;5010620;28;20037;-64
2021/05/16 10:10:08;;;;;;;6.30;5.88;;;;;;;13.87;79.24;95023.72;5010223;28;20030;-63
2021/05/16 10:12:36;;;;;;;5.10;4.80;;;;;;;13.71;80.31;95022.06;5022099;28;20087;-63
2021/05/16 10:15:08;;;;;;;7.68;4.93;;;;;;;13.98;78.83;95005.78;5024759;28;20085;-62
2021/05/16 10:17:38;;;;;;;5.78;5.30;;;;;;;14.21;79.55;95026.88;5018183;28;20033;-63
2021/05/16 10:20:16;;;;;;;5.40;4.90;;;;;;;14.43;78.23;95032.28;5012064;28;20018;-64
2021/05/16 10:22:54;;;;;;;8.25;7.18;;;;;;;14.52;79.41;95031.22;5012720;28;20034;-62
2021/05/16 10:25:47;;;;;;;10.45;7.03;;;;;;;14.81;78.38;95012.84;5010778;28;20081;-61
2021/05/16 10:28:16;;;;;;;6.72;6.22;;;;;;;14.84;76.28;95008.00;5011453;28;20524;-63
2021/05/16 10:31:02;;;;;;;4.75;4.22;;;;;;;14.98;72.49;94993.06;5015275;28;20044;-61
2021/05/16 10:33:36;;;;;;;3.75;3.55;;;;;;;14.95;73.90;94985.50;5016836;28;20014;-62
2021/05/16 10:36:03;;;;;;;8.38;5.85;;;;;;;15.70;74.11;94982.56;5017514;28;20088;-62
2021/05/16 10:38:33;;;;;;;6.72;6.00;;;;;;;15.94;72.91;94990.34;5009550;28;20058;-62
2021/05/16 10:41:25;;;;;;;6.10;5.60;;;;;;;16.59;73.06;94990.94;5014895;28;20391;-62
2021/05/16 10:43:51;;;;;;;5.13;4.68;;;;;;;17.24;67.73;94995.13;5013126;28;20505;-60
2021/05/16 10:46:45;;;;;;;4.47;3.95;;;;;;;16.79;69.00;94992.88;4984112;28;20022;-62
2021/05/16 10:49:22;;;;;;;3.88;3.67;;;;;;;16.33;67.81;94979.16;5002693;28;20058;-62
2021/05/16 10:51:48;;;;;;;4.32;4.03;;;;;;;16.89;69.97;94987.19;5011141;28;20026;-65
2021/05/16 10:54:28;;;;;;;3.95;3.65;;;;;;;17.37;67.22;94983.69;5004635;28;20030;-67
2021/05/16 10:57:13;;;;;;;4.70;4.40;;;;;;;17.56;68.06;94974.09;5003809;28;20054;-63
2021/05/16 10:59:40;;;;;;;4.15;3.85;;;;;;;17.63;65.37;94984.75;5006345;28;20028;-63
2021/05/16 11:02:06;;;;;;;2.80;2.70;;;;;;;18.49;61.02;94979.59;5019055;28;20080;-64
2021/05/16 11:04:50;;;;;;;1.38;1.27;;;;;;;19.18;54.98;94958.63;5017511;28;20087;-64
2021/05/16 11:07:35;;;;;;;1.77;0.88;;;;;;;18.55;54.01;94959.25;5017845;28;20025;-64
2021/05/16 11:10:22;;;;;;;1.50;1.40;;;;;;;18.58;55.23;94956.19;5016142;28;20028;-64
2021/05/16 11:12:48;;;;;;;1.50;1.40;;;;;;;18.20;55.41;94965.69;5008580;28;20030;-64
2021/05/16 11:15:23;;;;;;;1.50;1.50;;;;;;;17.77;58.14;94953.63;5020669;28;20370;-61
2021/05/16 11:17:53;;;;;;;1.58;1.48;;;;;;;17.66;58.77;94955.06;5030653;28;20029;-62
2021/05/16 11:20:19;;;;;;;4.40;1.77;;;;;;;18.00;56.27;94942.53;5021224;28;20029;-61
2021/05/16 11:22:45;;;;;;;4.25;2.80;;;;;;;17.38;58.58;94953.41;5034698;28;20029;-60
2021/05/16 11:25:10;;;;;;;1.60;1.50;;;;;;;17.19;59.72;94957.66;5024884;28;20046;-59
2021/05/16 11:27:36;;;;;;;1.20;1.15;;;;;;;17.52;57.50;94954.22;5008477;28;20058;-62
2021/05/16 11:30:08;;;;;;;0.63;0.63;;;;;;;17.26;55.06;94955.00;5009975;28;20057;-62